createdAt,value
2017-09-22T00:00:20.960Z,94.00
2017-09-22T00:02:50.776Z,94.70
2017-09-22T00:05:20.515Z,94.10
2017-09-22T00:07:49.485Z,93.70
2017-09-22T00:10:18.466Z,93.60
2017-09-22T00:12:48.212Z,94.20
2017-09-22T00:15:17.199Z,94.30
2017-09-22T00:17:46.191Z,94.20
2017-09-22T00:20:15.267Z,94.20
2017-09-22T00:22:44.345Z,94.50
2017-09-22T00:25:14.062Z,94.60
2017-09-22T00:27:43.801Z,94.60
2017-09-22T00:30:12.770Z,94.20
2017-09-22T00:32:42.518Z,94.80
2017-09-22T00:35:11.494Z,94.80
2017-09-22T00:37:40.479Z,94.20
2017-09-22T00:40:09.445Z,94.30
2017-09-22T00:42:39.252Z,94.40
2017-09-22T00:45:08.195Z,94.00
2017-09-22T00:47:37.183Z,93.90
2017-09-22T00:50:06.987Z,93.80
2017-09-22T00:52:35.995Z,93.70
2017-09-22T00:55:04.953Z,94.00
2017-09-22T00:57:34.022Z,94.10
2017-09-22T01:00:03.741Z,94.30
2017-09-22T01:02:33.497Z,94.20
2017-09-22T01:05:02.484Z,94.20
2017-09-22T01:07:31.497Z,93.60
2017-09-22T01:10:00.452Z,93.60
2017-09-22T01:12:29.811Z,93.60
2017-09-22T01:14:59.835Z,94.00
2017-09-22T01:17:29.528Z,94.00
2017-09-22T01:19:58.497Z,93.70
2017-09-22T01:22:27.527Z,93.90
2017-09-22T01:24:57.235Z,94.60
2017-09-22T01:27:27.116Z,94.10
2017-09-22T01:29:56.088Z,93.80
2017-09-22T01:32:25.080Z,93.90
2017-09-22T01:34:54.039Z,93.80
2017-09-22T01:37:22.992Z,93.90
2017-09-22T01:39:52.043Z,93.70
2017-09-22T01:42:20.992Z,94.00
2017-09-22T01:44:50.761Z,94.30
2017-09-22T01:47:19.724Z,94.10
2017-09-22T01:49:48.706Z,94.10
2017-09-22T01:52:17.666Z,94.00
2017-09-22T01:54:46.657Z,94.00
2017-09-22T01:57:15.604Z,94.30
2017-09-22T01:59:44.572Z,94.40
2017-09-22T02:02:13.565Z,94.20
2017-09-22T02:04:42.545Z,94.00
2017-09-22T02:07:11.517Z,93.90
2017-09-22T02:09:40.899Z,93.70
2017-09-22T02:12:09.874Z,93.80
2017-09-22T02:14:39.620Z,93.80
2017-09-22T02:17:09.377Z,93.60
2017-09-22T02:19:39.283Z,93.60
2017-09-22T02:22:08.640Z,93.60
2017-09-22T02:24:37.606Z,93.60
2017-09-22T02:27:07.104Z,93.60
2017-09-22T02:29:36.849Z,93.70
2017-09-22T02:32:05.816Z,93.50
2017-09-22T02:34:35.445Z,93.40
2017-09-22T02:37:04.436Z,93.30
2017-09-22T02:39:34.180Z,93.60
2017-09-22T02:42:03.943Z,93.30
2017-09-22T02:44:32.931Z,93.60
2017-09-22T02:47:01.925Z,93.50
2017-09-22T02:49:30.880Z,93.60
2017-09-22T02:52:00.650Z,93.90
2017-09-22T02:54:30.377Z,93.90
2017-09-22T02:56:59.359Z,93.80
2017-09-22T02:59:28.712Z,93.80
2017-09-22T03:01:58.465Z,93.60
2017-09-22T03:04:27.841Z,93.40
2017-09-22T03:06:56.941Z,93.70
2017-09-22T03:09:26.678Z,93.40
2017-09-22T03:11:56.428Z,93.60
2017-09-22T03:14:26.161Z,93.40
2017-09-22T03:16:55.150Z,93.60
2017-09-22T03:19:24.109Z,93.60
2017-09-22T03:21:53.091Z,93.70
2017-09-22T03:24:22.073Z,93.50
2017-09-22T03:26:51.071Z,93.50
2017-09-22T03:29:20.807Z,93.40
2017-09-22T03:31:49.783Z,93.40
2017-09-22T03:34:18.756Z,93.70
2017-09-22T03:36:47.756Z,93.90
2017-09-22T03:39:16.732Z,93.70
2017-09-22T03:41:46.645Z,94.20
2017-09-22T03:44:15.616Z,93.90
2017-09-22T03:46:44.612Z,93.90
2017-09-22T03:49:13.593Z,93.80
2017-09-22T03:51:42.580Z,93.80
2017-09-22T03:54:11.543Z,93.80
2017-09-22T03:56:40.516Z,94.00
2017-09-22T03:59:09.476Z,93.70
2017-09-22T04:01:39.240Z,94.10
2017-09-22T04:04:08.212Z,93.90
2017-09-22T04:06:37.609Z,93.90
2017-09-22T04:09:07.068Z,94.00
2017-09-22T04:11:36.799Z,94.00
2017-09-22T04:14:06.582Z,94.00
2017-09-22T04:16:35.564Z,94.30
2017-09-22T04:19:04.546Z,94.50
2017-09-22T04:21:33.562Z,94.80
2017-09-22T04:24:02.527Z,94.40
2017-09-22T04:26:31.486Z,94.60
2017-09-22T04:29:00.472Z,94.60
2017-09-22T04:31:29.472Z,94.60
2017-09-22T04:33:58.452Z,94.90
2017-09-22T04:36:28.200Z,95.30
2017-09-22T04:38:57.197Z,94.90
2017-09-22T04:41:26.157Z,95.00
2017-09-22T04:43:55.148Z,95.30
2017-09-22T04:46:24.113Z,95.10
2017-09-22T04:48:53.864Z,95.50
2017-09-22T04:51:22.823Z,95.20
2017-09-22T04:53:52.575Z,95.00
2017-09-22T04:56:21.533Z,94.90
2017-09-22T04:58:51.290Z,95.10
2017-09-22T05:01:20.249Z,94.80
2017-09-22T05:03:49.320Z,94.70
2017-09-22T05:06:18.270Z,94.50
2017-09-22T05:08:47.264Z,94.60
2017-09-22T05:11:16.254Z,94.80
2017-09-22T05:13:45.207Z,94.70
2017-09-22T05:16:14.224Z,94.90
2017-09-22T05:18:43.192Z,94.80
2017-09-22T05:21:12.188Z,94.80
2017-09-22T05:23:41.163Z,94.70
2017-09-22T05:26:10.926Z,95.10
2017-09-22T05:28:40.295Z,94.70
2017-09-22T05:31:09.289Z,94.80
2017-09-22T05:33:38.249Z,94.90
2017-09-22T05:36:08.009Z,95.00
2017-09-22T05:38:36.977Z,95.00
2017-09-22T05:41:05.964Z,94.80
2017-09-22T05:43:34.941Z,94.70
2017-09-22T05:46:03.938Z,94.60
2017-09-22T05:48:32.921Z,94.80
2017-09-22T05:51:01.877Z,95.00
2017-09-22T05:53:30.879Z,94.90
2017-09-22T05:55:59.840Z,94.80
2017-09-22T05:58:28.850Z,94.80
2017-09-22T06:00:57.840Z,94.70
2017-09-22T06:03:26.853Z,94.60
2017-09-22T06:05:55.832Z,94.50
2017-09-22T06:08:24.832Z,94.40
2017-09-22T06:10:53.851Z,94.30
2017-09-22T06:13:22.854Z,94.50
2017-09-22T06:15:51.913Z,94.50
2017-09-22T06:18:22.005Z,94.50
2017-09-22T06:20:51.107Z,94.60
2017-09-22T06:23:20.148Z,94.60
2017-09-22T06:25:49.160Z,94.40
2017-09-22T06:28:18.384Z,94.30
2017-09-22T06:30:47.349Z,94.30
2017-09-22T06:33:16.356Z,94.20
2017-09-22T06:35:45.452Z,94.10
2017-09-22T06:38:14.459Z,94.10
2017-09-22T06:40:43.839Z,94.00
2017-09-22T06:43:12.825Z,94.30
2017-09-22T06:45:41.813Z,93.90
2017-09-22T06:48:10.793Z,93.50
2017-09-22T06:50:40.600Z,93.40
2017-09-22T06:53:09.630Z,93.80
2017-09-22T06:55:38.585Z,93.10
2017-09-22T06:58:08.105Z,93.00
2017-09-22T07:00:37.468Z,93.10
2017-09-22T07:03:06.488Z,93.10
2017-09-22T07:05:35.450Z,93.10
2017-09-22T07:08:06.033Z,93.70
2017-09-22T07:10:35.016Z,93.10
2017-09-22T07:13:03.985Z,93.00
2017-09-22T07:15:33.728Z,92.80
2017-09-22T07:18:02.763Z,92.70
2017-09-22T07:20:32.493Z,93.10
2017-09-22T07:23:01.505Z,92.70
2017-09-22T07:25:30.483Z,92.90
2017-09-22T07:28:01.009Z,92.70
2017-09-22T07:30:30.642Z,93.00
2017-09-22T07:32:59.704Z,92.50
2017-09-22T07:35:29.085Z,92.90
2017-09-22T07:37:58.394Z,93.00
2017-09-22T07:40:27.374Z,93.30
2017-09-22T07:42:56.352Z,92.80
2017-09-22T07:45:25.347Z,93.30
2017-09-22T07:47:54.347Z,92.60
2017-09-22T07:50:23.337Z,92.90
2017-09-22T07:52:52.318Z,92.20
2017-09-22T07:55:21.876Z,92.50
2017-09-22T07:57:51.633Z,92.10
2017-09-22T08:00:21.417Z,91.20
2017-09-22T08:02:50.390Z,91.30
2017-09-22T08:05:19.853Z,91.70
2017-09-22T08:07:48.846Z,92.00
2017-09-22T08:10:18.614Z,92.30
2017-09-22T08:12:47.571Z,92.30
2017-09-22T08:15:16.586Z,93.00
2017-09-22T08:17:46.311Z,93.10
2017-09-22T08:20:15.307Z,92.90
2017-09-22T08:22:44.280Z,92.50
2017-09-22T08:25:13.256Z,92.00
2017-09-22T08:27:42.253Z,92.50
2017-09-22T08:30:11.280Z,92.10
2017-09-22T08:32:40.260Z,91.50
2017-09-22T08:35:09.236Z,91.90
2017-09-22T08:37:38.211Z,91.40
2017-09-22T08:40:07.442Z,91.60
2017-09-22T08:42:36.798Z,91.70
2017-09-22T08:45:06.751Z,91.30
2017-09-22T08:47:35.729Z,91.60
2017-09-22T08:50:04.705Z,91.80
2017-09-22T08:52:34.479Z,92.00
2017-09-22T08:55:03.493Z,91.60
2017-09-22T08:57:33.422Z,90.60
2017-09-22T09:00:02.602Z,90.30
2017-09-22T09:02:31.568Z,90.80
2017-09-22T09:05:01.525Z,90.80
2017-09-22T09:07:31.355Z,90.70
2017-09-22T09:10:00.342Z,89.20
2017-09-22T09:12:29.317Z,89.00
2017-09-22T09:14:59.100Z,89.80
2017-09-22T09:17:28.213Z,90.00
2017-09-22T09:19:58.139Z,89.80
2017-09-22T09:22:27.891Z,88.30
2017-09-22T09:24:57.897Z,89.00
2017-09-22T09:27:27.676Z,90.50
2017-09-22T09:29:57.598Z,89.40
2017-09-22T09:32:27.138Z,88.40
2017-09-22T09:34:57.111Z,86.60
2017-09-22T09:37:26.117Z,85.00
2017-09-22T09:39:55.079Z,87.00
2017-09-22T09:42:24.564Z,87.20
2017-09-22T09:44:53.546Z,88.10
2017-09-22T09:47:22.933Z,88.10
2017-09-22T09:49:51.962Z,87.40
2017-09-22T09:52:20.920Z,87.70
2017-09-22T09:54:49.894Z,88.80
2017-09-22T09:57:19.315Z,87.70
2017-09-22T09:59:48.675Z,87.90
2017-09-22T10:02:17.659Z,88.20
2017-09-22T10:04:46.648Z,88.50
2017-09-22T10:07:16.418Z,85.70
2017-09-22T10:09:45.414Z,82.50
2017-09-22T10:12:14.452Z,83.60
2017-09-22T10:14:43.492Z,79.40
2017-09-22T10:17:12.488Z,80.90
2017-09-22T10:19:41.456Z,82.60
2017-09-22T10:22:10.501Z,81.40
2017-09-22T10:24:40.219Z,85.00
2017-09-22T10:27:10.046Z,82.80
2017-09-22T10:29:39.132Z,79.20
2017-09-22T10:32:08.160Z,79.30
2017-09-22T10:34:37.128Z,80.40
2017-09-22T10:37:06.802Z,81.00
2017-09-22T10:39:35.852Z,77.40
2017-09-22T10:42:04.841Z,76.50
2017-09-22T10:44:33.819Z,76.10
2017-09-22T10:47:03.822Z,76.70
2017-09-22T10:49:33.417Z,76.10
2017-09-22T10:52:03.265Z,75.10
2017-09-22T10:54:32.420Z,75.10
2017-09-22T10:57:02.196Z,74.00
2017-09-22T10:59:31.196Z,73.90
2017-09-22T11:02:00.204Z,73.60
2017-09-22T11:04:29.164Z,74.40
2017-09-22T11:06:58.140Z,72.20
2017-09-22T11:09:27.100Z,73.50
2017-09-22T11:11:56.478Z,67.00
2017-09-22T11:14:25.444Z,67.70
2017-09-22T11:16:54.432Z,68.80
2017-09-22T11:19:23.389Z,67.90
2017-09-22T11:21:52.413Z,70.80
2017-09-22T11:24:22.144Z,74.30
2017-09-22T11:26:51.144Z,74.20
2017-09-22T11:29:20.155Z,75.90
2017-09-22T11:31:48.631Z,71.20
2017-09-22T11:34:17.638Z,72.90
2017-09-22T11:36:47.357Z,70.10
2017-09-22T11:39:16.533Z,66.20
2017-09-22T11:41:46.274Z,63.10
2017-09-22T11:44:15.261Z,61.80
2017-09-22T11:46:44.233Z,57.30
2017-09-22T11:49:13.228Z,59.10
2017-09-22T11:51:42.621Z,60.00
2017-09-22T11:54:12.377Z,62.40
2017-09-22T11:56:41.364Z,56.80
2017-09-22T11:59:10.340Z,57.20
2017-09-22T12:01:39.299Z,54.10
2017-09-22T12:04:09.071Z,52.50
2017-09-22T12:06:38.024Z,52.50
2017-09-22T12:09:07.032Z,52.40
2017-09-22T12:11:36.003Z,49.70
2017-09-22T12:14:05.012Z,51.00
2017-09-22T12:16:34.729Z,52.70
2017-09-22T12:19:03.723Z,56.20
2017-09-22T12:21:33.126Z,57.40
2017-09-22T12:24:02.116Z,57.00
2017-09-22T12:26:31.076Z,59.70
2017-09-22T12:29:00.063Z,60.30
2017-09-22T12:31:29.060Z,61.20
2017-09-22T12:33:58.812Z,63.30
2017-09-22T12:36:27.777Z,61.60
2017-09-22T12:38:56.788Z,58.20
2017-09-22T12:41:25.772Z,58.10
2017-09-22T12:43:54.729Z,58.90
2017-09-22T12:46:24.157Z,60.70
2017-09-22T12:48:53.178Z,57.20
2017-09-22T12:51:22.153Z,57.40
2017-09-22T12:53:51.113Z,56.00
2017-09-22T12:56:21.243Z,55.00
2017-09-22T12:58:50.185Z,52.50
2017-09-22T13:01:20.385Z,54.70
2017-09-22T13:03:49.391Z,56.10
2017-09-22T13:06:18.374Z,52.70
2017-09-22T13:08:47.369Z,53.40
2017-09-22T13:11:16.362Z,45.70
2017-09-22T13:13:45.320Z,43.70
2017-09-22T13:16:14.308Z,41.00
2017-09-22T13:18:43.273Z,41.40
2017-09-22T13:21:13.044Z,36.50
2017-09-22T13:23:42.026Z,37.50
2017-09-22T13:26:10.972Z,37.90
2017-09-22T13:28:40.821Z,35.90
2017-09-22T13:31:09.784Z,35.50
2017-09-22T13:33:38.745Z,35.90
2017-09-22T13:36:07.733Z,36.40
2017-09-22T13:38:36.808Z,32.40
2017-09-22T13:41:05.773Z,32.10
2017-09-22T13:43:35.519Z,37.40
2017-09-22T13:46:04.521Z,36.60
2017-09-22T13:48:33.505Z,37.70
2017-09-22T13:51:02.466Z,36.30
2017-09-22T13:53:31.445Z,35.00
2017-09-22T13:56:00.404Z,35.70
2017-09-22T13:58:30.162Z,36.10
2017-09-22T14:00:59.127Z,36.00
2017-09-22T14:03:28.117Z,33.60
2017-09-22T14:05:57.882Z,33.10
2017-09-22T14:08:27.735Z,32.20
2017-09-22T14:10:57.538Z,32.80
2017-09-22T14:13:27.281Z,32.40
2017-09-22T14:15:56.349Z,33.10
2017-09-22T14:18:26.100Z,34.80
2017-09-22T14:20:56.682Z,32.90
2017-09-22T14:23:26.441Z,34.30
2017-09-22T14:25:55.404Z,34.20
2017-09-22T14:28:24.377Z,37.30
2017-09-22T14:30:53.756Z,41.70
2017-09-22T14:33:22.779Z,45.30
2017-09-22T14:35:52.551Z,50.70
2017-09-22T14:38:22.351Z,52.20
2017-09-22T14:40:51.308Z,55.20
2017-09-22T14:43:20.270Z,53.50
2017-09-22T14:45:49.683Z,53.70
2017-09-22T14:48:20.021Z,54.70
2017-09-22T14:50:49.073Z,51.10
2017-09-22T14:53:18.837Z,53.40
2017-09-22T14:55:47.875Z,52.20
2017-09-22T14:58:16.876Z,52.60
2017-09-22T15:00:45.940Z,53.40
2017-09-22T15:03:14.908Z,55.50
2017-09-22T15:05:43.913Z,54.60
2017-09-22T15:08:12.916Z,55.60
2017-09-22T15:10:43.043Z,58.70
2017-09-22T15:13:13.365Z,57.70
2017-09-22T15:15:43.162Z,57.60
2017-09-22T15:18:12.987Z,60.60
2017-09-22T15:20:42.494Z,59.50
2017-09-22T15:23:12.280Z,60.40
2017-09-22T15:25:41.286Z,65.00
2017-09-22T15:28:11.639Z,65.10
2017-09-22T15:30:41.535Z,67.60
2017-09-22T15:33:10.554Z,69.50
2017-09-22T15:35:40.093Z,70.20
2017-09-22T15:38:09.065Z,71.60
2017-09-22T15:40:39.131Z,71.90
2017-09-22T15:43:08.220Z,72.80
2017-09-22T15:45:37.251Z,73.30
2017-09-22T15:48:06.600Z,73.60
2017-09-22T15:50:35.592Z,76.20
2017-09-22T15:53:04.791Z,76.70
2017-09-22T15:55:36.384Z,77.90
2017-09-22T15:58:05.385Z,78.50
2017-09-22T16:00:34.457Z,79.00
2017-09-22T16:03:03.485Z,79.00
2017-09-22T16:05:33.532Z,81.00
2017-09-22T16:08:02.663Z,80.20
2017-09-22T16:10:32.070Z,80.50
2017-09-22T16:13:01.069Z,81.10
2017-09-22T16:15:30.460Z,81.30
2017-09-22T16:18:00.097Z,82.50
2017-09-22T16:20:29.863Z,84.10
2017-09-22T16:22:58.883Z,84.10
2017-09-22T16:25:27.884Z,82.20
2017-09-22T16:27:57.853Z,83.10
2017-09-22T16:30:27.294Z,83.20
2017-09-22T16:32:56.325Z,83.40
2017-09-22T16:35:26.214Z,84.70
2017-09-22T16:37:55.330Z,84.40
2017-09-22T16:40:24.390Z,85.10
2017-09-22T16:42:54.160Z,86.80
2017-09-22T16:45:23.247Z,87.50
2017-09-22T16:47:53.089Z,87.60
2017-09-22T16:50:22.054Z,88.10
2017-09-22T16:52:51.053Z,88.90
2017-09-22T16:55:20.023Z,89.10
2017-09-22T16:57:49.036Z,89.60
2017-09-22T17:00:18.052Z,89.20
2017-09-22T17:02:47.018Z,89.70
2017-09-22T17:05:16.025Z,87.60
2017-09-22T17:07:44.991Z,88.20
2017-09-22T17:10:14.149Z,85.80
2017-09-22T17:12:43.969Z,87.20
2017-09-22T17:15:12.937Z,86.40
2017-09-22T17:17:44.002Z,88.30
2017-09-22T17:20:13.900Z,88.90
2017-09-22T17:22:42.918Z,88.90
2017-09-22T17:25:11.891Z,89.20
2017-09-22T17:27:40.844Z,89.90
2017-09-22T17:30:09.849Z,90.20
2017-09-22T17:32:38.816Z,89.70
2017-09-22T17:35:07.777Z,89.20
2017-09-22T17:37:37.112Z,88.60
2017-09-22T17:40:06.139Z,87.40
2017-09-22T17:42:35.108Z,88.10
2017-09-22T17:45:04.472Z,89.30
2017-09-22T17:47:34.236Z,90.10
2017-09-22T17:50:03.248Z,90.00
2017-09-22T17:52:32.606Z,90.40
2017-09-22T17:55:01.563Z,90.50
2017-09-22T17:57:30.601Z,90.90
2017-09-22T17:59:59.573Z,90.90
2017-09-22T18:02:28.597Z,90.90
2017-09-22T18:04:57.619Z,91.10
2017-09-22T18:07:26.632Z,91.20
2017-09-22T18:09:55.572Z,90.80
2017-09-22T18:12:25.351Z,91.00
2017-09-22T18:14:54.330Z,91.00
2017-09-22T18:17:23.322Z,91.30
2017-09-22T18:19:52.721Z,91.60
2017-09-22T18:22:22.482Z,91.50
2017-09-22T18:24:51.446Z,91.70
2017-09-22T18:27:20.433Z,91.90
2017-09-22T18:29:49.813Z,91.80
2017-09-22T18:32:18.811Z,91.60
2017-09-22T18:34:47.920Z,91.60
2017-09-22T18:37:16.928Z,91.70
2017-09-22T18:39:45.907Z,91.70
2017-09-22T18:42:14.984Z,91.60
2017-09-22T18:44:43.948Z,91.80
2017-09-22T18:47:13.735Z,92.20
2017-09-22T18:49:43.481Z,91.70
2017-09-22T18:52:12.589Z,91.50
2017-09-22T18:54:41.564Z,92.00
2017-09-22T18:57:11.332Z,92.10
2017-09-22T18:59:40.333Z,92.10
2017-09-22T19:02:09.348Z,92.20
2017-09-22T19:04:38.349Z,92.30
2017-09-22T19:07:07.329Z,92.30
2017-09-22T19:09:37.106Z,92.80
2017-09-22T19:12:06.100Z,92.50
2017-09-22T19:14:35.189Z,92.50
2017-09-22T19:17:04.194Z,92.40
2017-09-22T19:19:33.233Z,92.40
2017-09-22T19:22:02.225Z,92.30
2017-09-22T19:24:31.621Z,92.40
2017-09-22T19:27:00.669Z,92.60
2017-09-22T19:29:30.102Z,92.60
2017-09-22T19:31:59.991Z,92.90
2017-09-22T19:34:29.206Z,92.90
2017-09-22T19:36:58.986Z,93.60
2017-09-22T19:39:28.376Z,93.00
2017-09-22T19:41:57.839Z,92.80
2017-09-22T19:44:27.227Z,92.80
2017-09-22T19:46:57.515Z,92.90
2017-09-22T19:49:27.582Z,92.60
2017-09-22T19:51:56.585Z,92.60
2017-09-22T19:54:25.979Z,93.00
2017-09-22T19:56:56.028Z,93.10
2017-09-22T19:59:25.390Z,92.80
2017-09-22T20:01:54.827Z,92.90
2017-09-22T20:04:28.939Z,92.90
2017-09-22T20:07:09.228Z,93.20
2017-09-22T20:09:59.750Z,93.00
2017-09-22T20:12:29.513Z,93.20
2017-09-22T20:14:58.562Z,92.80
2017-09-22T20:17:27.578Z,92.90
2017-09-22T20:19:56.557Z,92.90
2017-09-22T20:22:26.326Z,93.40
2017-09-22T20:24:55.751Z,92.90
2017-09-22T20:27:24.746Z,92.70
2017-09-22T20:29:54.476Z,93.00
2017-09-22T20:32:24.052Z,92.60
2017-09-22T20:34:53.830Z,93.30
2017-09-22T20:37:22.913Z,92.90
2017-09-22T20:40:01.849Z,92.80
2017-09-22T20:42:30.823Z,93.00
2017-09-22T20:44:59.807Z,92.90
2017-09-22T20:47:29.075Z,93.00
2017-09-22T20:49:58.445Z,93.00
2017-09-22T20:52:28.423Z,93.00
2017-09-22T20:54:58.183Z,92.90
2017-09-22T20:57:27.227Z,92.90
2017-09-22T20:59:56.329Z,92.90
2017-09-22T21:02:25.310Z,93.00
2017-09-22T21:04:54.364Z,93.30
2017-09-22T21:07:24.089Z,93.60
2017-09-22T21:09:53.841Z,93.80
2017-09-22T21:12:22.817Z,93.80
2017-09-22T21:14:51.796Z,93.20
2017-09-22T21:17:21.169Z,93.00
2017-09-22T21:19:50.157Z,93.00
2017-09-22T21:22:19.131Z,93.00
2017-09-22T21:24:48.867Z,93.00
2017-09-22T21:27:18.644Z,93.40
2017-09-22T21:29:47.601Z,93.00
2017-09-22T21:32:17.360Z,93.00
2017-09-22T21:34:46.312Z,93.10
2017-09-22T21:37:15.275Z,93.40
2017-09-22T21:39:44.260Z,93.10
2017-09-22T21:42:14.031Z,93.10
2017-09-22T21:44:43.023Z,93.10
2017-09-22T21:47:12.042Z,93.20
2017-09-22T21:49:40.996Z,93.30
2017-09-22T21:52:10.355Z,93.00
2017-09-22T21:54:39.745Z,93.20
2017-09-22T21:57:09.272Z,93.20
2017-09-22T21:59:38.241Z,93.20
2017-09-22T22:15:24.840Z,93.60
2017-09-22T22:17:53.821Z,93.50
2017-09-22T22:20:22.818Z,93.40
2017-09-22T22:22:52.562Z,93.80
2017-09-22T22:25:21.539Z,93.40
2017-09-22T22:27:50.560Z,93.60
2017-09-22T22:30:20.297Z,93.70
2017-09-22T22:32:49.260Z,94.00
2017-09-22T22:35:18.239Z,94.00
2017-09-22T22:37:47.291Z,94.00
2017-09-22T22:40:17.047Z,94.10
2017-09-22T22:42:46.335Z,94.00
2017-09-22T22:45:15.315Z,94.30
2017-09-22T22:47:45.041Z,93.90
2017-09-22T22:50:14.013Z,94.30
2017-09-22T22:52:42.967Z,93.90
2017-09-22T22:55:11.973Z,94.20
2017-09-22T22:57:40.927Z,94.40
2017-09-22T23:00:10.677Z,94.80
2017-09-22T23:02:40.408Z,94.60
2017-09-22T23:05:09.428Z,94.10
2017-09-22T23:07:38.382Z,94.40
2017-09-22T23:10:08.149Z,94.30
2017-09-22T23:12:37.681Z,94.00
2017-09-22T23:15:07.434Z,94.40
2017-09-22T23:17:36.397Z,94.00
2017-09-22T23:20:05.364Z,94.40
2017-09-22T23:22:34.371Z,94.40
2017-09-22T23:25:03.337Z,94.30
2017-09-22T23:27:32.295Z,93.80
2017-09-22T23:30:01.271Z,93.90
2017-09-22T23:32:30.263Z,93.90
2017-09-22T23:34:59.236Z,94.10
2017-09-22T23:37:28.983Z,94.30
2017-09-22T23:39:58.335Z,93.80
2017-09-22T23:42:28.076Z,94.10
2017-09-22T23:44:57.049Z,94.00
2017-09-22T23:47:26.764Z,94.50
2017-09-22T23:49:56.538Z,94.50
2017-09-22T23:52:25.491Z,94.80
2017-09-22T23:54:54.449Z,94.20
2017-09-22T23:57:24.195Z,94.50
2017-09-22T23:59:54.332Z,94.70
